createdAt,value
2023-10-14T00:00:38.294Z,97408.72
2023-10-14T00:03:24.623Z,97420.56
2023-10-14T00:05:54.833Z,97421.34
2023-10-14T00:08:29.121Z,97415.41
2023-10-14T00:11:02.723Z,97403.53
2023-10-14T00:13:42.453Z,97415.66
2023-10-14T00:16:27.234Z,97422.13
2023-10-14T00:18:58.530Z,97419.84
2023-10-14T00:21:30.379Z,97422.97
2023-10-14T00:24:03.109Z,97415.97
2023-10-14T00:26:34.806Z,97421.16
2023-10-14T00:29:20.696Z,97423.75
2023-10-14T00:31:53.734Z,97418.31
2023-10-14T00:34:27.245Z,97432.03
2023-10-14T00:36:57.929Z,97425.56
2023-10-14T00:39:29.323Z,97424.69
2023-10-14T00:42:00.924Z,97415.09
2023-10-14T00:44:34.955Z,97416.09
2023-10-14T00:47:08.921Z,97403.53
2023-10-14T00:49:44.394Z,97394.00
2023-10-14T00:52:21.188Z,97389.28
2023-10-14T00:55:14.443Z,97400.34
2023-10-14T00:57:55.813Z,97405.38
2023-10-14T01:00:39.238Z,97400.66
2023-10-14T01:03:12.332Z,97391.34
2023-10-14T01:05:42.761Z,97396.97
2023-10-14T01:08:15.044Z,97404.03
2023-10-14T01:10:45.872Z,97409.75
2023-10-14T01:13:18.469Z,97411.72
2023-10-14T01:15:59.712Z,97406.19
2023-10-14T01:18:32.568Z,97411.34
2023-10-14T01:21:03.239Z,97406.88
2023-10-14T01:23:37.467Z,97403.44
2023-10-14T01:26:11.636Z,97397.75
2023-10-14T01:28:46.704Z,97385.41
2023-10-14T01:32:11.950Z,97407.13
2023-10-14T01:34:47.112Z,97403.00
2023-10-14T01:37:20.772Z,97401.25
2023-10-14T01:39:58.455Z,97392.25
2023-10-14T01:42:32.766Z,97408.00
2023-10-14T01:45:08.624Z,97410.34
2023-10-14T01:47:45.065Z,97419.88
2023-10-14T01:50:16.071Z,97410.06
2023-10-14T01:52:47.414Z,97411.59
2023-10-14T01:55:22.202Z,97416.25
2023-10-14T01:57:53.725Z,97417.03
2023-10-14T02:00:29.751Z,97417.53
2023-10-14T02:03:07.879Z,97406.16
2023-10-14T02:05:41.501Z,97396.34
2023-10-14T02:08:17.384Z,97394.53
2023-10-14T02:10:51.471Z,97397.09
2023-10-14T02:13:24.449Z,97399.69
2023-10-14T02:16:00.730Z,97391.13
2023-10-14T02:18:31.505Z,97392.47
2023-10-14T02:21:06.381Z,97389.03
2023-10-14T02:23:51.318Z,97386.94
2023-10-14T02:26:31.976Z,97389.50
2023-10-14T02:29:02.457Z,97378.16
2023-10-14T02:31:37.303Z,97375.81
2023-10-14T02:34:10.058Z,97373.47
2023-10-14T02:36:50.724Z,97375.56
2023-10-14T02:39:27.560Z,97367.00
2023-10-14T02:42:08.721Z,97365.41
2023-10-14T02:44:53.955Z,97368.78
2023-10-14T02:47:28.752Z,97355.06
2023-10-14T02:50:07.068Z,97340.28
2023-10-14T02:52:40.622Z,97342.38
2023-10-14T02:55:24.958Z,97346.47
2023-10-14T02:58:02.479Z,97331.50
2023-10-14T03:00:34.080Z,97332.50
2023-10-14T03:03:14.336Z,97327.53
2023-10-14T03:05:52.588Z,97334.00
2023-10-14T03:08:24.306Z,97327.31
2023-10-14T03:11:00.977Z,97324.75
2023-10-14T03:13:34.620Z,97332.22
2023-10-14T03:16:05.959Z,97322.69
2023-10-14T03:18:41.126Z,97330.97
2023-10-14T03:21:24.032Z,97325.81
2023-10-14T03:23:58.195Z,97311.34
2023-10-14T03:26:33.745Z,97310.59
2023-10-14T03:29:15.745Z,97307.72
2023-10-14T03:31:46.553Z,97311.56
2023-10-14T03:34:18.831Z,97315.72
2023-10-14T03:36:51.935Z,97333.59
2023-10-14T03:39:23.365Z,97323.81
2023-10-14T03:41:54.140Z,97329.81
2023-10-14T03:44:28.694Z,97326.44
2023-10-14T03:47:04.686Z,97331.09
2023-10-14T03:49:35.082Z,97330.81
2023-10-14T03:52:05.370Z,97331.34
2023-10-14T03:54:43.253Z,97319.72
2023-10-14T03:57:18.286Z,97325.91
2023-10-14T03:59:55.124Z,97318.09
2023-10-14T04:02:26.852Z,97318.13
2023-10-14T04:05:09.275Z,97312.94
2023-10-14T04:07:42.622Z,97317.56
2023-10-14T04:10:13.353Z,97317.09
2023-10-14T04:12:54.609Z,97309.59
2023-10-14T04:15:46.884Z,97315.31
2023-10-14T04:18:25.564Z,97318.44
2023-10-14T04:21:15.134Z,97322.84
2023-10-14T04:24:01.191Z,97328.03
2023-10-14T04:26:36.169Z,97321.06
2023-10-14T04:29:14.095Z,97335.28
2023-10-14T04:31:56.747Z,97338.88
2023-10-14T04:34:27.223Z,97333.94
2023-10-14T04:36:58.020Z,97333.94
2023-10-14T04:39:34.490Z,97340.75
2023-10-14T04:42:23.039Z,97338.44
2023-10-14T04:45:00.609Z,97363.53
2023-10-14T04:47:39.895Z,97357.88
2023-10-14T04:50:14.796Z,97366.94
2023-10-14T04:52:49.927Z,97387.06
2023-10-14T04:55:33.591Z,97393.53
2023-10-14T04:58:13.499Z,97401.03
2023-10-14T05:00:46.896Z,97410.31
2023-10-14T05:03:22.608Z,97401.03
2023-10-14T05:05:57.607Z,97403.59
2023-10-14T05:08:45.829Z,97395.59
2023-10-14T05:11:19.942Z,97393.28
2023-10-14T05:14:08.268Z,97388.66
2023-10-14T05:16:55.124Z,97394.81
2023-10-14T05:19:32.008Z,97404.13
2023-10-14T05:22:06.185Z,97400.00
2023-10-14T05:24:37.685Z,97396.41
2023-10-14T05:27:10.174Z,97393.81
2023-10-14T05:29:40.474Z,97398.97
2023-10-14T05:32:16.922Z,97406.19
2023-10-14T05:34:51.694Z,97415.00
2023-10-14T05:37:23.143Z,97404.13
2023-10-14T05:39:56.606Z,97411.59
2023-10-14T05:42:27.238Z,97417.28
2023-10-14T05:45:03.084Z,97419.88
2023-10-14T05:47:33.717Z,97421.41
2023-10-14T05:50:09.783Z,97429.94
2023-10-14T05:52:40.041Z,97425.53
2023-10-14T05:55:11.364Z,97430.69
2023-10-14T05:57:44.460Z,97433.56
2023-10-14T06:00:24.851Z,97430.97
2023-10-14T06:02:56.259Z,97428.91
2023-10-14T06:05:31.303Z,97448.53
2023-10-14T06:08:07.271Z,97458.09
2023-10-14T06:10:43.345Z,97461.69
2023-10-14T06:13:15.765Z,97476.09
2023-10-14T06:15:47.192Z,97482.78
2023-10-14T06:18:18.132Z,97478.91
2023-10-14T06:20:51.150Z,97486.41
2023-10-14T06:23:21.365Z,97485.13
2023-10-14T06:25:51.616Z,97491.81
2023-10-14T06:28:21.862Z,97500.38
2023-10-14T06:30:52.870Z,97495.47
2023-10-14T06:33:27.665Z,97503.75
2023-10-14T06:36:05.318Z,97505.84
2023-10-14T06:38:37.858Z,97500.19
2023-10-14T06:41:13.054Z,97504.84
2023-10-14T06:43:44.849Z,97503.28
2023-10-14T06:46:17.610Z,97507.41
2023-10-14T06:48:53.932Z,97506.13
2023-10-14T06:51:27.611Z,97516.97
2023-10-14T06:53:57.942Z,97521.13
2023-10-14T06:56:28.919Z,97518.28
2023-10-14T06:58:59.813Z,97534.00
2023-10-14T07:01:30.423Z,97519.00
2023-10-14T07:04:00.955Z,97526.91
2023-10-14T07:06:33.934Z,97521.75
2023-10-14T07:09:09.274Z,97526.91
2023-10-14T07:11:40.448Z,97525.91
2023-10-14T07:14:10.714Z,97530.56
2023-10-14T07:16:41.695Z,97526.53
2023-10-14T07:19:12.636Z,97520.59
2023-10-14T07:21:45.757Z,97526.53
2023-10-14T07:24:16.292Z,97519.19
2023-10-14T07:26:46.631Z,97525.63
2023-10-14T07:29:16.867Z,97528.38
2023-10-14T07:31:47.184Z,97533.78
2023-10-14T07:34:18.033Z,97541.69
2023-10-14T07:36:52.350Z,97537.47
2023-10-14T07:39:31.816Z,97539.97
2023-10-14T07:42:10.568Z,97538.28
2023-10-14T07:44:40.920Z,97540.59
2023-10-14T07:47:12.712Z,97543.38
2023-10-14T07:49:46.127Z,97541.69
2023-10-14T07:52:19.103Z,97541.56
2023-10-14T07:54:52.943Z,97534.06
2023-10-14T07:57:23.518Z,97529.09
2023-10-14T08:00:00.561Z,97544.19
2023-10-14T08:02:32.832Z,97542.03
2023-10-14T08:05:06.466Z,97534.31
2023-10-14T08:07:47.511Z,97537.31
2023-10-14T08:10:23.652Z,97544.34
2023-10-14T08:12:56.500Z,97543.31
2023-10-14T08:15:30.895Z,97548.06
2023-10-14T08:18:02.226Z,97553.72
2023-10-14T08:20:32.598Z,97561.72
2023-10-14T08:23:10.855Z,97565.53
2023-10-14T08:25:43.359Z,97569.72
2023-10-14T08:28:13.769Z,97570.38
2023-10-14T08:30:52.052Z,97587.47
2023-10-14T08:33:24.487Z,97596.84
2023-10-14T08:35:56.934Z,97586.47
2023-10-14T08:38:30.570Z,97588.16
2023-10-14T08:41:02.057Z,97583.94
2023-10-14T08:43:37.051Z,97587.50
2023-10-14T08:46:10.327Z,97584.75
2023-10-14T08:48:43.865Z,97587.50
2023-10-14T08:51:16.202Z,97583.63
2023-10-14T08:53:54.786Z,97585.50
2023-10-14T08:56:26.337Z,97584.91
2023-10-14T08:58:59.386Z,97589.81
2023-10-14T09:01:33.389Z,97588.81
2023-10-14T09:04:05.204Z,97593.72
2023-10-14T09:06:36.415Z,97596.22
2023-10-14T09:09:22.194Z,97596.03
2023-10-14T09:11:52.651Z,97600.22
2023-10-14T09:14:23.055Z,97589.78
2023-10-14T09:16:55.179Z,97601.69
2023-10-14T09:19:25.849Z,97608.00
2023-10-14T09:21:58.827Z,97600.78
2023-10-14T09:24:35.951Z,97595.81
2023-10-14T09:27:06.458Z,97610.56
2023-10-14T09:29:38.138Z,97615.19
2023-10-14T09:32:10.162Z,97640.28
2023-10-14T09:34:43.136Z,97643.88
2023-10-14T09:37:19.347Z,97662.91
2023-10-14T09:40:04.038Z,97676.91
2023-10-14T09:42:36.755Z,97673.44
2023-10-14T09:45:14.036Z,97691.19
2023-10-14T09:47:47.709Z,97692.91
2023-10-14T09:50:20.160Z,97697.41
2023-10-14T09:52:53.903Z,97690.72
2023-10-14T09:55:28.584Z,97686.56
2023-10-14T09:58:00.606Z,97682.13
2023-10-14T10:00:35.320Z,97699.38
2023-10-14T10:03:09.276Z,97691.38
2023-10-14T10:05:45.293Z,97686.31
2023-10-14T10:08:50.460Z,97677.00
2023-10-14T10:11:27.169Z,97684.31
2023-10-14T10:14:00.974Z,97682.00
2023-10-14T10:16:36.009Z,97675.66
2023-10-14T10:19:07.272Z,97666.75
2023-10-14T10:21:41.797Z,97669.31
2023-10-14T10:24:23.139Z,97666.22
2023-10-14T10:27:11.902Z,97670.13
2023-10-14T10:29:49.345Z,97673.06
2023-10-14T10:32:24.349Z,97677.03
2023-10-14T10:35:17.995Z,97689.41
2023-10-14T10:37:54.169Z,97693.31
2023-10-14T10:40:29.912Z,97694.53
2023-10-14T10:43:11.357Z,97700.44
2023-10-14T10:45:43.998Z,97686.94
2023-10-14T10:48:16.647Z,97686.94
2023-10-14T10:50:57.198Z,97683.13
2023-10-14T10:53:29.013Z,97679.94
2023-10-14T10:55:59.372Z,97676.47
2023-10-14T10:58:33.598Z,97672.00
2023-10-14T11:01:05.668Z,97680.63
2023-10-14T11:03:41.485Z,97675.78
2023-10-14T11:06:14.791Z,97676.00
2023-10-14T11:08:46.492Z,97680.13
2023-10-14T11:11:17.020Z,97675.72
2023-10-14T11:13:49.903Z,97679.91
2023-10-14T11:16:20.243Z,97684.44
2023-10-14T11:18:51.887Z,97689.91
2023-10-14T11:21:22.871Z,97691.13
2023-10-14T11:23:54.391Z,97690.47
2023-10-14T11:26:25.257Z,97674.84
2023-10-14T11:29:00.427Z,97673.41
2023-10-14T11:31:31.143Z,97664.59
2023-10-14T11:34:05.541Z,97648.78
2023-10-14T11:36:37.856Z,97654.13
2023-10-14T11:39:14.437Z,97669.94
2023-10-14T11:41:45.615Z,97672.63
2023-10-14T11:44:21.476Z,97684.22
2023-10-14T11:46:52.412Z,97690.97
2023-10-14T11:49:23.056Z,97701.97
2023-10-14T11:51:53.578Z,97698.31
2023-10-14T11:54:25.775Z,97695.91
2023-10-14T11:56:56.404Z,97693.41
2023-10-14T11:59:29.235Z,97689.25
2023-10-14T12:02:00.439Z,97683.53
2023-10-14T12:04:30.862Z,97681.78
2023-10-14T12:07:04.492Z,97688.91
2023-10-14T12:09:34.852Z,97696.44
2023-10-14T12:12:05.856Z,97704.28
2023-10-14T12:14:38.828Z,97708.63
2023-10-14T12:17:09.235Z,97715.78
2023-10-14T12:19:42.331Z,97712.75
2023-10-14T12:22:12.891Z,97713.22
2023-10-14T12:24:43.118Z,97713.66
2023-10-14T12:27:15.570Z,97721.03
2023-10-14T12:29:50.075Z,97721.56
2023-10-14T12:32:20.498Z,97731.16
2023-10-14T12:34:52.065Z,97730.22
2023-10-14T12:37:26.293Z,97726.97
2023-10-14T12:40:05.891Z,97737.22
2023-10-14T12:42:50.350Z,97733.56
2023-10-14T12:45:26.791Z,97732.13
2023-10-14T12:48:02.564Z,97729.56
2023-10-14T12:50:34.458Z,97734.25
2023-10-14T12:53:07.210Z,97735.94
2023-10-14T12:55:38.031Z,97738.72
2023-10-14T12:58:09.132Z,97739.09
2023-10-14T13:00:44.198Z,97740.50
2023-10-14T13:03:14.590Z,97749.47
2023-10-14T13:05:48.168Z,97753.47
2023-10-14T13:08:20.619Z,97761.47
2023-10-14T13:10:50.974Z,97762.94
2023-10-14T13:13:22.348Z,97754.75
2023-10-14T13:15:55.580Z,97758.03
2023-10-14T13:18:25.860Z,97765.53
2023-10-14T13:20:59.735Z,97758.97
2023-10-14T13:23:30.317Z,97769.09
2023-10-14T13:26:00.558Z,97760.69
2023-10-14T13:28:34.021Z,97763.34
2023-10-14T13:31:08.150Z,97768.19
2023-10-14T13:33:38.475Z,97769.91
2023-10-14T13:36:11.200Z,97778.81
2023-10-14T13:38:42.769Z,97767.94
2023-10-14T13:41:16.259Z,97773.50
2023-10-14T13:43:47.301Z,97780.31
2023-10-14T13:46:22.366Z,97781.59
2023-10-14T13:48:58.583Z,97789.53
2023-10-14T13:51:29.616Z,97778.28
2023-10-14T13:53:59.989Z,97784.06
2023-10-14T13:56:32.456Z,97803.34
2023-10-14T13:59:04.867Z,97803.63
2023-10-14T14:01:39.235Z,97813.16
2023-10-14T14:04:12.414Z,97814.03
2023-10-14T14:06:43.582Z,97812.53
2023-10-14T14:09:16.585Z,97814.16
2023-10-14T14:11:46.911Z,97822.84
2023-10-14T14:14:17.439Z,97823.88
2023-10-14T14:16:50.375Z,97834.38
2023-10-14T14:19:20.830Z,97839.63
2023-10-14T14:21:53.274Z,97849.97
2023-10-14T14:24:24.117Z,97845.09
2023-10-14T14:26:56.168Z,97860.34
2023-10-14T14:29:26.487Z,97861.56
2023-10-14T14:31:59.830Z,97852.69
2023-10-14T14:34:32.303Z,97862.38
2023-10-14T14:37:03.363Z,97863.50
2023-10-14T14:39:33.781Z,97876.72
2023-10-14T14:42:04.610Z,97867.16
2023-10-14T14:44:34.935Z,97864.50
2023-10-14T14:47:08.102Z,97866.91
2023-10-14T14:49:38.420Z,97873.19
2023-10-14T14:52:09.186Z,97876.19
2023-10-14T14:54:41.986Z,97886.41
2023-10-14T14:57:12.360Z,97889.34
2023-10-14T14:59:42.624Z,97901.06
2023-10-14T15:02:16.935Z,97895.81
2023-10-14T15:04:48.347Z,97901.06
2023-10-14T15:07:22.582Z,97915.88
2023-10-14T15:09:52.867Z,97917.28
2023-10-14T15:12:23.877Z,97923.41
2023-10-14T15:14:56.524Z,97921.06
2023-10-14T15:17:30.345Z,97935.50
2023-10-14T15:20:01.064Z,97933.69
2023-10-14T15:22:32.239Z,97933.97
2023-10-14T15:25:02.479Z,97943.22
2023-10-14T15:27:32.953Z,97951.97
2023-10-14T15:30:03.706Z,97948.16
2023-10-14T15:32:37.387Z,97947.38
2023-10-14T15:35:10.965Z,97954.13
2023-10-14T15:37:41.812Z,97953.13
2023-10-14T15:40:14.063Z,97938.81
2023-10-14T15:42:45.347Z,97955.13
2023-10-14T15:45:25.352Z,97953.97
2023-10-14T15:48:01.617Z,97958.06
2023-10-14T15:50:33.022Z,97967.91
2023-10-14T15:53:04.598Z,97959.66
2023-10-14T15:55:38.595Z,97967.31
2023-10-14T15:58:09.786Z,97967.34
2023-10-14T16:00:48.817Z,97972.28
2023-10-14T16:03:22.197Z,97978.94
2023-10-14T16:05:58.307Z,97984.88
2023-10-14T16:08:29.123Z,97989.59
2023-10-14T16:11:00.895Z,98000.97
2023-10-14T16:13:31.419Z,98005.69
2023-10-14T16:16:02.521Z,98005.69
2023-10-14T16:18:36.999Z,98017.09
2023-10-14T16:21:07.465Z,98018.66
2023-10-14T16:23:38.217Z,98022.59
2023-10-14T16:26:13.227Z,98028.09
2023-10-14T16:28:43.602Z,98039.06
2023-10-14T16:31:14.721Z,98049.28
2023-10-14T16:33:49.038Z,98054.34
2023-10-14T16:36:20.255Z,98058.63
2023-10-14T16:38:51.533Z,98060.97
2023-10-14T16:41:21.834Z,98060.97
2023-10-14T16:43:52.067Z,98066.47
2023-10-14T16:46:24.919Z,98067.06
2023-10-14T16:48:58.043Z,98081.97
2023-10-14T16:51:28.317Z,98083.16
2023-10-14T16:53:58.569Z,98096.50
2023-10-14T16:56:33.751Z,98101.38
2023-10-14T16:59:04.031Z,98113.34
2023-10-14T17:01:34.645Z,98115.84
2023-10-14T17:04:09.023Z,98119.38
2023-10-14T17:06:39.465Z,98119.47
2023-10-14T17:09:11.911Z,98130.06
2023-10-14T17:11:42.379Z,98129.81
2023-10-14T17:14:13.497Z,98129.34
2023-10-14T17:16:44.142Z,98131.16
2023-10-14T17:19:17.028Z,98141.34
2023-10-14T17:21:47.309Z,98132.25
2023-10-14T17:24:17.555Z,98135.38
2023-10-14T17:26:49.000Z,98143.53
2023-10-14T17:29:20.064Z,98152.75
2023-10-14T17:31:50.382Z,98150.69
2023-10-14T17:34:23.368Z,98160.50
2023-10-14T17:36:53.605Z,98161.84
2023-10-14T17:39:25.250Z,98170.81
2023-10-14T17:41:55.553Z,98173.34
2023-10-14T17:44:25.987Z,98173.34
2023-10-14T17:46:56.415Z,98185.25
2023-10-14T17:49:29.603Z,98185.56
2023-10-14T17:52:00.314Z,98194.47
2023-10-14T17:54:31.009Z,98188.53
2023-10-14T17:57:02.027Z,98194.94
2023-10-14T17:59:32.349Z,98199.19
2023-10-14T18:02:02.667Z,98202.09
2023-10-14T18:04:35.549Z,98198.81
2023-10-14T18:07:07.387Z,98194.69
2023-10-14T18:09:38.758Z,98194.69
2023-10-14T18:12:11.327Z,98192.75
2023-10-14T18:14:43.816Z,98194.56
2023-10-14T18:17:14.101Z,98207.56
2023-10-14T18:19:47.239Z,98205.91
2023-10-14T18:22:17.536Z,98215.22
2023-10-14T18:24:47.793Z,98215.56
2023-10-14T18:27:19.021Z,98222.13
2023-10-14T18:29:49.367Z,98226.53
2023-10-14T18:32:19.583Z,98227.09
2023-10-14T18:34:52.430Z,98230.81
2023-10-14T18:37:22.826Z,98248.13
2023-10-14T18:39:53.131Z,98250.41
2023-10-14T18:42:23.823Z,98259.41
2023-10-14T18:44:54.062Z,98252.56
2023-10-14T18:47:24.663Z,98253.16
2023-10-14T18:49:57.757Z,98253.94
2023-10-14T18:52:28.291Z,98257.59
2023-10-14T18:54:58.564Z,98251.78
2023-10-14T18:57:28.819Z,98250.97
2023-10-14T18:59:59.079Z,98244.78
2023-10-14T19:02:29.783Z,98249.50
2023-10-14T19:05:02.688Z,98248.31
2023-10-14T19:07:33.035Z,98253.31
2023-10-14T19:10:05.155Z,98256.94
2023-10-14T19:12:35.405Z,98253.63
2023-10-14T19:15:07.881Z,98261.09
2023-10-14T19:17:38.168Z,98259.91
2023-10-14T19:20:18.490Z,98259.38
2023-10-14T19:23:25.328Z,98262.81
2023-10-14T19:25:57.907Z,98261.75
2023-10-14T19:28:30.217Z,98268.19
2023-10-14T19:31:08.272Z,98270.88
2023-10-14T19:33:38.939Z,98274.34
2023-10-14T19:36:10.072Z,98276.25
2023-10-14T19:38:43.248Z,98279.66
2023-10-14T19:41:14.209Z,98286.78
2023-10-14T19:43:44.516Z,98290.88
2023-10-14T19:46:15.625Z,98295.34
2023-10-14T19:48:46.789Z,98281.69
2023-10-14T19:51:17.114Z,98286.50
2023-10-14T19:53:50.053Z,98290.03
2023-10-14T19:56:22.040Z,98297.66
2023-10-14T19:58:52.354Z,98301.06
2023-10-14T20:01:22.749Z,98305.53
2023-10-14T20:03:53.592Z,98309.03
2023-10-14T20:06:25.809Z,98303.06
2023-10-14T20:08:58.866Z,98297.53
2023-10-14T20:11:34.051Z,98294.84
2023-10-14T20:14:04.613Z,98300.00
2023-10-14T20:16:34.943Z,98296.75
2023-10-14T20:19:05.855Z,98295.50
2023-10-14T20:21:36.075Z,98297.34
2023-10-14T20:24:12.985Z,98304.53
2023-10-14T20:26:43.444Z,98304.75
2023-10-14T20:29:14.530Z,98301.19
2023-10-14T20:31:44.957Z,98297.59
2023-10-14T20:34:18.996Z,98306.25
2023-10-14T20:36:50.692Z,98305.19
2023-10-14T20:39:29.879Z,98302.81
2023-10-14T20:42:00.969Z,98307.03
2023-10-14T20:44:33.646Z,98312.00
2023-10-14T20:47:04.014Z,98313.16
2023-10-14T20:49:34.619Z,98320.16
2023-10-14T20:52:05.568Z,98317.91
2023-10-14T20:54:38.449Z,98320.47
2023-10-14T20:57:10.227Z,98316.97
2023-10-14T20:59:40.869Z,98320.16
2023-10-14T21:02:11.149Z,98324.88
2023-10-14T21:04:41.383Z,98319.69
2023-10-14T21:07:12.564Z,98314.63
2023-10-14T21:09:45.577Z,98325.28
2023-10-14T21:12:15.841Z,98325.63
2023-10-14T21:14:46.101Z,98321.22
2023-10-14T21:17:16.333Z,98323.44
2023-10-14T21:19:46.587Z,98331.06
2023-10-14T21:22:16.865Z,98328.56
2023-10-14T21:24:49.697Z,98333.81
2023-10-14T21:27:20.362Z,98320.19
2023-10-14T21:29:51.482Z,98319.41
2023-10-14T21:32:22.001Z,98329.72
2023-10-14T21:34:52.399Z,98320.84
2023-10-14T21:37:26.336Z,98319.41
2023-10-14T21:39:59.849Z,98317.97
2023-10-14T21:42:30.341Z,98315.47
2023-10-14T21:45:00.890Z,98323.09
2023-10-14T21:47:31.251Z,98321.97
2023-10-14T21:50:01.539Z,98325.00
2023-10-14T21:52:33.715Z,98324.19
2023-10-14T21:55:09.702Z,98317.72
2023-10-14T21:57:39.987Z,98325.91
2023-10-14T22:00:20.309Z,98321.00
2023-10-14T22:02:51.568Z,98314.00
2023-10-14T22:05:22.208Z,98324.59
2023-10-14T22:07:53.571Z,98322.84
2023-10-14T22:10:27.641Z,98322.81
2023-10-14T22:12:59.272Z,98322.13
2023-10-14T22:15:31.517Z,98321.47
2023-10-14T22:18:05.792Z,98323.13
2023-10-14T22:20:33.938Z,98319.94
2023-10-14T22:23:07.705Z,98314.28
2023-10-14T22:25:46.942Z,98310.47
2023-10-14T22:28:17.665Z,98309.53
2023-10-14T22:30:48.792Z,98314.09
2023-10-14T22:33:19.805Z,98313.34
2023-10-14T22:35:50.059Z,98316.06
2023-10-14T22:38:20.368Z,98313.22
2023-10-14T22:40:53.293Z,98313.38
2023-10-14T22:43:23.599Z,98307.03
2023-10-14T22:45:54.214Z,98314.91
2023-10-14T22:48:25.115Z,98316.53
2023-10-14T22:51:00.185Z,98323.16
2023-10-14T22:53:31.820Z,98321.38
2023-10-14T22:56:07.267Z,98319.03
2023-10-14T22:58:38.784Z,98315.91
2023-10-14T23:01:12.024Z,98317.22
2023-10-14T23:03:43.088Z,98319.91
2023-10-14T23:06:13.989Z,98306.78
2023-10-14T23:08:44.331Z,98315.34
2023-10-14T23:11:17.193Z,98310.53
2023-10-14T23:13:48.917Z,98307.56
2023-10-14T23:16:19.337Z,98303.94
2023-10-14T23:18:49.676Z,98315.03
2023-10-14T23:21:19.963Z,98312.97
2023-10-14T23:23:52.429Z,98316.63
2023-10-14T23:26:25.875Z,98316.31
2023-10-14T23:28:56.959Z,98311.53
2023-10-14T23:31:28.585Z,98309.16
2023-10-14T23:33:58.879Z,98315.97
2023-10-14T23:36:29.254Z,98311.53
2023-10-14T23:38:59.587Z,98324.00
2023-10-14T23:41:32.423Z,98325.09
2023-10-14T23:44:05.337Z,98314.81
2023-10-14T23:46:35.592Z,98314.00
2023-10-14T23:49:06.669Z,98321.53
2023-10-14T23:51:37.316Z,98316.53
2023-10-14T23:54:10.620Z,98320.66
2023-10-14T23:56:43.864Z,98306.13
2023-10-14T23:59:14.211Z,98317.53
